Strona główna
METAR-TAF:

METAR-TAF

Lotnisko :

Roi Et, Tajlandia

Szerokość geograficzna: 16-07-00N, Długość geograficzna: 103-46-26E, wysokość: 138 m

Aktualna obserwacja pogody

Raport powstał 16 minut temu, godzina 04:00 UTC
Wiatr 9 kt od północny wschód, zmienny między północ i wschód
Temperatura 25°C
Wilgotność 44%
Ciśnienie 1016 hPa
Widzialność: 7000 m

METAR: VTUV 110400Z 05009KT 360V100 7000 NSC 25/12 Q1016 NOSIG

czas: 11:16 (04:16 UTC)

Prognoza

Raport powstał 5 godziny i 16 minut temu, godzina 23:00 UTC
Prognoza ważna od 11 godzina 00 UTC do 11 godzina 24 UTC
Wiatr 4 kt od północny wschód
Widzialność: 4000 m
zamglenie
Stopniowe zmiany
od 11 godzina 01 UTC do 11 godzina 03 UTC
Widzialność: 9000 m

TAF: VTUV 102300Z 1100/1124 05004KT 4000 BR NSC BECMG 1101/1103 9000 NSW

Obserwacja i prognoza pogody dla ponad 4000 lotnisk (raport METAR i TAF).

Dostępne stacje oznaczono żółtymi i czerwonymi punktami na mapie.

Najedź kursorem aby zobaczyć nazwę stacji.

Kliknij aby zobaczyć obserwacje i prognozy pogody.

Aby zmienić mapę: kliknij na zielony przycisk z czarnym krzyżykiem, aby powiększyć; na zielony przycisk z myślnikiem, aby pomniejszyć; na zielone strzałki, aby przejść do map sąsiednich.


METAR-TAF: